createdAt,value
2023-01-07T00:01:19.593Z,13.40
2023-01-07T00:03:47.417Z,14.20
2023-01-07T00:06:24.468Z,13.80
2023-01-07T00:08:54.098Z,14.00
2023-01-07T00:11:25.444Z,13.30
2023-01-07T00:13:53.520Z,13.60
2023-01-07T00:16:22.926Z,13.30
2023-01-07T00:19:05.086Z,13.90
2023-01-07T00:21:32.189Z,13.70
2023-01-07T00:24:03.071Z,13.00
2023-01-07T00:26:35.416Z,13.30
2023-01-07T00:29:02.292Z,13.50
2023-01-07T00:31:32.643Z,13.10
2023-01-07T00:33:59.552Z,13.40
2023-01-07T00:36:31.328Z,12.80
2023-01-07T00:39:04.843Z,12.70
2023-01-07T00:41:32.756Z,12.30
2023-01-07T00:43:59.593Z,12.90
2023-01-07T00:46:26.507Z,12.80
2023-01-07T00:48:53.301Z,12.80
2023-01-07T00:51:20.335Z,13.30
2023-01-07T00:53:47.543Z,12.70
2023-01-07T00:56:16.235Z,12.40
2023-01-07T00:58:42.935Z,12.70
2023-01-07T01:01:10.875Z,13.30
2023-01-07T01:03:38.470Z,13.20
2023-01-07T01:06:07.911Z,12.90
2023-01-07T01:08:34.716Z,13.00
2023-01-07T01:11:06.799Z,12.70
2023-01-07T01:13:35.009Z,12.70
2023-01-07T01:16:02.325Z,12.50
2023-01-07T01:18:28.993Z,12.70
2023-01-07T01:20:55.784Z,13.00
2023-01-07T01:23:22.685Z,12.80
2023-01-07T01:25:49.340Z,13.50
2023-01-07T01:28:16.126Z,12.70
2023-01-07T01:30:42.805Z,12.60
2023-01-07T01:33:09.485Z,12.40
2023-01-07T01:35:40.885Z,13.00
2023-01-07T01:38:07.583Z,13.30
2023-01-07T01:40:34.492Z,13.40
2023-01-07T01:43:01.174Z,13.20
2023-01-07T01:45:28.570Z,12.50
2023-01-07T01:48:05.027Z,12.90
2023-01-07T01:50:44.179Z,13.10
2023-01-07T01:53:25.160Z,13.30
2023-01-07T01:56:07.128Z,13.60
2023-01-07T01:58:37.578Z,14.10
2023-01-07T02:01:04.406Z,13.80
2023-01-07T02:03:35.289Z,13.20
2023-01-07T02:06:03.485Z,13.10
2023-01-07T02:08:30.303Z,13.10
2023-01-07T02:11:09.171Z,13.30
2023-01-07T02:13:55.128Z,14.10
2023-01-07T02:16:37.240Z,13.40
2023-01-07T02:19:21.817Z,13.00
2023-01-07T02:22:06.602Z,12.80
2023-01-07T02:24:55.733Z,12.50
2023-01-07T02:28:19.820Z,12.10
2023-01-07T02:31:31.624Z,12.40
2023-01-07T02:34:26.666Z,12.40
2023-01-07T02:37:14.442Z,12.50
2023-01-07T02:39:57.991Z,13.50
2023-01-07T02:42:56.898Z,13.20
2023-01-07T02:45:50.164Z,13.30
2023-01-07T02:48:19.602Z,13.40
2023-01-07T02:50:46.242Z,12.80
2023-01-07T02:53:17.449Z,12.80
2023-01-07T02:56:02.934Z,13.20
2023-01-07T02:58:48.324Z,12.80
2023-01-07T03:01:18.244Z,13.00
2023-01-07T03:04:06.024Z,12.40
2023-01-07T03:07:10.164Z,12.40
2023-01-07T03:10:01.469Z,13.20
2023-01-07T03:12:49.896Z,13.40
2023-01-07T03:15:19.479Z,13.80
2023-01-07T03:18:11.714Z,13.50
2023-01-07T03:20:41.441Z,13.30
2023-01-07T03:23:10.852Z,13.00
2023-01-07T03:25:45.283Z,12.60
2023-01-07T03:28:15.937Z,12.60
2023-01-07T03:30:43.563Z,12.90
2023-01-07T03:33:13.406Z,13.50
2023-01-07T03:35:45.116Z,13.10
2023-01-07T03:38:14.893Z,12.60
2023-01-07T03:40:41.823Z,12.40
2023-01-07T03:43:15.427Z,12.10
2023-01-07T03:45:42.949Z,14.30
2023-01-07T03:48:10.693Z,12.70
2023-01-07T03:50:37.379Z,13.30
2023-01-07T03:53:07.611Z,13.20
2023-01-07T03:55:34.272Z,13.10
2023-01-07T03:58:00.926Z,13.10
2023-01-07T04:00:27.683Z,13.70
2023-01-07T04:02:54.442Z,13.00
2023-01-07T04:05:21.136Z,12.60
2023-01-07T04:07:47.825Z,12.20
2023-01-07T04:10:14.704Z,12.90
2023-01-07T04:12:41.481Z,12.80
2023-01-07T04:15:08.484Z,12.70
2023-01-07T04:17:35.255Z,12.70
2023-01-07T04:20:01.974Z,12.90
2023-01-07T04:22:29.642Z,13.40
2023-01-07T04:24:56.470Z,13.10
2023-01-07T04:27:23.325Z,12.60
2023-01-07T04:29:50.071Z,12.70
2023-01-07T04:32:16.780Z,12.90
2023-01-07T04:34:43.411Z,13.40
2023-01-07T04:37:10.107Z,12.70
2023-01-07T04:39:36.780Z,13.30
2023-01-07T04:42:03.537Z,12.30
2023-01-07T04:44:30.187Z,12.80
2023-01-07T04:46:56.881Z,12.50
2023-01-07T04:49:23.639Z,12.80
2023-01-07T04:51:50.236Z,13.30
2023-01-07T04:54:17.051Z,12.20
2023-01-07T04:56:43.695Z,12.30
2023-01-07T04:59:10.395Z,13.10
2023-01-07T05:01:37.197Z,12.40
2023-01-07T05:04:04.357Z,12.80
2023-01-07T05:06:31.086Z,11.90
2023-01-07T05:08:58.103Z,12.80
2023-01-07T05:11:24.847Z,12.70
2023-01-07T05:13:52.281Z,13.10
2023-01-07T05:16:19.176Z,13.20
2023-01-07T05:18:46.020Z,12.70
2023-01-07T05:21:12.801Z,13.20
2023-01-07T05:23:39.609Z,12.90
2023-01-07T05:26:06.774Z,12.30
2023-01-07T05:28:33.749Z,12.60
2023-01-07T05:31:13.907Z,12.80
2023-01-07T05:33:40.604Z,13.40
2023-01-07T05:36:07.663Z,12.90
2023-01-07T05:38:35.530Z,14.30
2023-01-07T05:41:02.225Z,13.20
2023-01-07T05:43:31.199Z,12.40
2023-01-07T05:45:59.263Z,12.10
2023-01-07T05:48:26.162Z,13.10
2023-01-07T05:50:52.940Z,12.80
2023-01-07T05:53:19.900Z,13.00
2023-01-07T05:55:46.608Z,12.40
2023-01-07T05:58:13.686Z,11.90
2023-01-07T06:00:40.344Z,12.50
2023-01-07T06:03:07.094Z,12.10
2023-01-07T06:05:33.784Z,11.90
2023-01-07T06:08:00.495Z,12.50
2023-01-07T06:10:29.468Z,11.90
2023-01-07T06:12:56.228Z,11.50
2023-01-07T06:15:22.986Z,11.60
2023-01-07T06:17:49.764Z,11.90
2023-01-07T06:20:16.634Z,12.00
2023-01-07T06:22:43.514Z,12.70
2023-01-07T06:25:11.778Z,11.70
2023-01-07T06:27:38.759Z,12.60
2023-01-07T06:30:06.042Z,12.20
2023-01-07T06:32:37.671Z,12.40
2023-01-07T06:35:04.987Z,11.60
2023-01-07T06:37:31.631Z,11.20
2023-01-07T06:39:58.438Z,11.40
2023-01-07T06:42:26.336Z,11.50
2023-01-07T06:44:53.120Z,12.80
2023-01-07T06:47:19.879Z,12.10
2023-01-07T06:49:46.544Z,11.40
2023-01-07T06:52:13.320Z,11.20
2023-01-07T06:54:40.049Z,12.20
2023-01-07T06:57:06.698Z,12.80
2023-01-07T06:59:33.453Z,12.20
2023-01-07T07:02:00.214Z,11.50
2023-01-07T07:04:27.062Z,11.50
2023-01-07T07:06:53.773Z,11.40
2023-01-07T07:09:20.532Z,12.20
2023-01-07T07:11:47.234Z,12.20
2023-01-07T07:14:14.074Z,12.40
2023-01-07T07:16:40.737Z,12.70
2023-01-07T07:19:07.601Z,13.10
2023-01-07T07:21:34.231Z,12.70
2023-01-07T07:24:01.041Z,12.10
2023-01-07T07:26:27.814Z,12.60
2023-01-07T07:28:54.539Z,12.80
2023-01-07T07:31:21.332Z,13.10
2023-01-07T07:33:48.023Z,12.40
2023-01-07T07:36:14.773Z,12.90
2023-01-07T07:38:41.427Z,12.70
2023-01-07T07:41:08.181Z,12.40
2023-01-07T07:43:35.935Z,13.20
2023-01-07T07:46:02.671Z,12.10
2023-01-07T07:48:29.593Z,12.50
2023-01-07T07:50:56.295Z,12.70
2023-01-07T07:53:23.029Z,11.90
2023-01-07T07:55:49.808Z,12.70
2023-01-07T07:58:16.448Z,12.60
2023-01-07T08:00:43.268Z,12.70
2023-01-07T08:03:10.955Z,12.30
2023-01-07T08:05:45.348Z,12.80
2023-01-07T08:08:14.832Z,12.50
2023-01-07T08:10:41.546Z,12.60
2023-01-07T08:13:09.842Z,12.60
2023-01-07T08:15:37.105Z,12.90
2023-01-07T08:18:07.416Z,13.80
2023-01-07T08:20:35.355Z,13.20
2023-01-07T08:23:04.881Z,13.10
2023-01-07T08:25:33.003Z,13.00
2023-01-07T08:28:00.672Z,13.50
2023-01-07T08:30:28.633Z,13.70
2023-01-07T08:32:56.100Z,13.50
2023-01-07T08:35:23.523Z,13.40
2023-01-07T08:37:50.250Z,13.30
2023-01-07T08:40:16.991Z,12.50
2023-01-07T08:42:43.724Z,12.40
2023-01-07T08:45:11.106Z,12.70
2023-01-07T08:47:38.402Z,12.90
2023-01-07T08:50:05.463Z,13.10
2023-01-07T08:52:34.443Z,13.20
2023-01-07T08:55:02.147Z,13.00
2023-01-07T08:57:30.038Z,12.80
2023-01-07T08:59:56.712Z,13.30
2023-01-07T09:02:23.515Z,12.60
2023-01-07T09:04:50.235Z,13.70
2023-01-07T09:07:16.963Z,13.60
2023-01-07T09:09:45.699Z,13.90
2023-01-07T09:12:12.400Z,13.80
2023-01-07T09:14:39.144Z,13.50
2023-01-07T09:17:05.900Z,13.20
2023-01-07T09:19:32.654Z,13.60
2023-01-07T09:21:59.481Z,14.10
2023-01-07T09:24:26.228Z,14.30
2023-01-07T09:26:52.890Z,14.80
2023-01-07T09:29:19.572Z,14.70
2023-01-07T09:31:46.437Z,14.90
2023-01-07T09:34:13.312Z,14.40
2023-01-07T09:36:39.969Z,14.60
2023-01-07T09:39:06.712Z,14.70
2023-01-07T09:41:42.140Z,14.40
2023-01-07T09:44:39.251Z,14.60
2023-01-07T09:47:09.039Z,15.00
2023-01-07T09:49:36.243Z,14.70
2023-01-07T09:52:12.965Z,14.10
2023-01-07T09:54:40.853Z,13.70
2023-01-07T09:57:14.432Z,13.60
2023-01-07T09:59:41.181Z,12.80
2023-01-07T10:02:37.351Z,12.90
2023-01-07T10:05:16.438Z,13.10
2023-01-07T10:08:29.281Z,12.70
2023-01-07T10:10:53.366Z,13.60
2023-01-07T10:13:39.777Z,13.50
2023-01-07T10:16:31.949Z,14.10
2023-01-07T10:19:17.828Z,13.80
2023-01-07T10:22:02.764Z,13.60
2023-01-07T10:24:34.180Z,13.30
2023-01-07T10:27:07.407Z,13.40
2023-01-07T10:29:45.036Z,13.30
2023-01-07T10:32:21.791Z,13.60
2023-01-07T10:34:55.523Z,13.40
2023-01-07T10:37:43.446Z,12.90
2023-01-07T10:40:27.513Z,12.50
2023-01-07T10:43:00.250Z,12.30
2023-01-07T10:45:56.095Z,12.80
2023-01-07T10:48:44.335Z,14.20
2023-01-07T10:51:32.678Z,13.00
2023-01-07T10:54:13.853Z,12.60
2023-01-07T10:56:49.714Z,13.00
2023-01-07T10:59:19.499Z,13.20
2023-01-07T11:01:51.681Z,13.60
2023-01-07T11:04:18.863Z,12.90
2023-01-07T11:06:54.858Z,12.80
2023-01-07T11:09:29.724Z,12.70
2023-01-07T11:12:00.913Z,12.40
2023-01-07T11:14:34.487Z,13.00
2023-01-07T11:17:10.323Z,12.90
2023-01-07T11:19:43.595Z,12.40
2023-01-07T11:22:25.572Z,12.50
2023-01-07T11:24:53.598Z,13.30
2023-01-07T11:27:23.447Z,12.70
2023-01-07T11:30:04.816Z,12.00
2023-01-07T11:32:38.488Z,12.50
2023-01-07T11:35:23.503Z,12.80
2023-01-07T11:37:51.122Z,12.50
2023-01-07T11:40:21.212Z,12.70
2023-01-07T11:42:55.776Z,12.90
2023-01-07T11:45:26.716Z,13.00
2023-01-07T11:48:04.673Z,13.60
2023-01-07T11:50:56.395Z,13.40
2023-01-07T11:53:35.259Z,13.20
2023-01-07T11:56:21.205Z,13.10
2023-01-07T11:58:52.945Z,12.80
2023-01-07T12:01:20.605Z,14.40
2023-01-07T12:03:53.151Z,14.40
2023-01-07T12:06:35.015Z,14.10
2023-01-07T12:09:15.045Z,14.00
2023-01-07T12:11:45.779Z,14.30
2023-01-07T12:14:25.359Z,14.00
2023-01-07T12:16:52.822Z,13.70
2023-01-07T12:19:38.581Z,13.50
2023-01-07T12:22:18.588Z,13.40
2023-01-07T12:25:01.068Z,14.20
2023-01-07T12:27:27.779Z,13.60
2023-01-07T12:30:25.252Z,14.00
2023-01-07T12:33:38.619Z,14.90
2023-01-07T12:36:13.330Z,14.30
2023-01-07T12:38:52.954Z,13.40
2023-01-07T12:41:32.191Z,13.90
2023-01-07T12:44:20.419Z,13.90
2023-01-07T12:47:30.480Z,14.40
2023-01-07T12:50:15.019Z,14.30
2023-01-07T12:53:00.040Z,13.40
2023-01-07T12:55:34.534Z,14.10
2023-01-07T12:58:10.586Z,13.60
2023-01-07T13:01:02.632Z,13.30
2023-01-07T13:04:13.825Z,13.00
2023-01-07T13:06:58.229Z,14.00
2023-01-07T13:09:37.705Z,14.10
2023-01-07T13:12:40.889Z,13.50
2023-01-07T13:15:16.921Z,13.60
2023-01-07T13:17:44.024Z,13.50
2023-01-07T13:20:16.141Z,14.50
2023-01-07T13:22:49.587Z,13.00
2023-01-07T13:25:28.546Z,13.20
2023-01-07T13:28:25.835Z,13.70
2023-01-07T13:31:10.546Z,14.00
2023-01-07T13:33:55.936Z,13.70
2023-01-07T13:36:45.122Z,13.50
2023-01-07T13:39:35.928Z,13.00
2023-01-07T13:42:26.001Z,13.40
2023-01-07T13:44:52.628Z,13.60
2023-01-07T13:47:30.644Z,14.00
2023-01-07T13:50:04.916Z,13.80
2023-01-07T13:52:43.225Z,13.30
2023-01-07T13:55:41.470Z,13.90
2023-01-07T13:58:46.013Z,13.70
2023-01-07T14:01:24.554Z,13.70
2023-01-07T14:04:12.234Z,12.90
2023-01-07T14:06:43.944Z,13.20
2023-01-07T14:09:16.011Z,13.10
2023-01-07T14:12:08.311Z,12.60
2023-01-07T14:14:52.617Z,13.30
2023-01-07T14:17:44.042Z,13.60
2023-01-07T14:20:22.781Z,13.20
2023-01-07T14:23:26.424Z,13.30
2023-01-07T14:26:27.248Z,14.30
2023-01-07T14:28:59.921Z,13.40
2023-01-07T14:31:29.549Z,13.10
2023-01-07T14:34:00.417Z,12.60
2023-01-07T14:37:00.939Z,13.40
2023-01-07T14:39:38.997Z,13.40
2023-01-07T14:42:20.874Z,13.20
2023-01-07T14:44:51.549Z,12.90
2023-01-07T14:47:45.229Z,13.20
2023-01-07T14:50:14.996Z,13.80
2023-01-07T14:53:15.728Z,13.00
2023-01-07T14:56:10.183Z,12.60
2023-01-07T14:58:55.813Z,13.90
2023-01-07T15:01:37.004Z,13.80
2023-01-07T15:04:32.657Z,12.70
2023-01-07T15:07:00.653Z,13.90
2023-01-07T15:10:12.609Z,14.40
2023-01-07T15:13:02.580Z,14.30
2023-01-07T15:15:55.108Z,13.00
2023-01-07T15:18:22.497Z,12.70
2023-01-07T15:21:11.730Z,12.30
2023-01-07T15:24:13.643Z,13.20
2023-01-07T15:27:01.671Z,12.50
2023-01-07T15:29:54.476Z,14.10
2023-01-07T15:32:33.243Z,13.50
2023-01-07T15:35:25.333Z,13.30
2023-01-07T15:37:52.129Z,13.60
2023-01-07T15:40:21.565Z,13.40
2023-01-07T15:42:52.418Z,13.50
2023-01-07T15:45:23.013Z,13.30
2023-01-07T15:47:50.595Z,13.10
2023-01-07T15:50:37.546Z,12.90
2023-01-07T15:53:25.829Z,12.60
2023-01-07T15:56:08.046Z,13.90
2023-01-07T15:58:40.632Z,13.90
2023-01-07T16:01:15.768Z,13.40
2023-01-07T16:03:47.717Z,13.20
2023-01-07T16:06:39.274Z,13.70
2023-01-07T16:09:21.917Z,13.40
2023-01-07T16:11:49.420Z,13.40
2023-01-07T16:14:21.483Z,12.30
2023-01-07T16:16:48.736Z,13.00
2023-01-07T16:19:21.183Z,13.10
2023-01-07T16:21:56.699Z,13.40
2023-01-07T16:24:23.486Z,12.80
2023-01-07T16:26:55.267Z,12.70
2023-01-07T16:29:32.166Z,12.50
2023-01-07T16:32:00.672Z,12.40
2023-01-07T16:34:27.528Z,13.00
2023-01-07T16:36:59.944Z,12.60
2023-01-07T16:39:33.909Z,12.60
2023-01-07T16:42:20.062Z,12.40
2023-01-07T16:44:49.571Z,13.10
2023-01-07T16:47:22.797Z,13.00
2023-01-07T16:50:00.217Z,13.10
2023-01-07T16:52:32.947Z,12.60
2023-01-07T16:55:00.175Z,12.60
2023-01-07T16:57:51.423Z,12.50
2023-01-07T17:00:19.229Z,12.70
2023-01-07T17:02:53.294Z,12.80
2023-01-07T17:05:26.208Z,13.10
2023-01-07T17:08:08.306Z,13.10
2023-01-07T17:10:42.635Z,13.30
2023-01-07T17:13:15.309Z,12.80
2023-01-07T17:15:43.362Z,12.90
2023-01-07T17:18:15.565Z,12.70
2023-01-07T17:20:44.426Z,12.60
2023-01-07T17:23:41.422Z,12.90
2023-01-07T17:26:10.998Z,12.20
2023-01-07T17:28:48.050Z,12.90
2023-01-07T17:31:15.477Z,13.00
2023-01-07T17:33:42.805Z,12.90
2023-01-07T17:36:17.943Z,12.60
2023-01-07T17:38:50.586Z,13.00
2023-01-07T17:41:38.286Z,12.90
2023-01-07T17:44:07.129Z,13.20
2023-01-07T17:46:35.054Z,13.30
2023-01-07T17:49:01.916Z,13.00
2023-01-07T17:51:29.315Z,13.20
2023-01-07T17:53:58.643Z,13.10
2023-01-07T17:56:25.715Z,13.30
2023-01-07T17:58:55.763Z,13.40
2023-01-07T18:01:24.083Z,12.90
2023-01-07T18:03:52.638Z,13.40
2023-01-07T18:06:22.055Z,13.10
2023-01-07T18:08:50.502Z,12.40
2023-01-07T18:11:42.922Z,13.10
2023-01-07T18:14:15.112Z,13.80
2023-01-07T18:16:42.133Z,13.00
2023-01-07T18:19:12.780Z,13.20
2023-01-07T18:21:39.999Z,12.90
2023-01-07T18:24:07.910Z,13.10
2023-01-07T18:26:35.625Z,12.60
2023-01-07T18:29:02.364Z,13.00
2023-01-07T18:31:29.172Z,13.80
2023-01-07T18:33:55.965Z,13.70
2023-01-07T18:36:22.739Z,12.90
2023-01-07T18:38:49.663Z,13.00
2023-01-07T18:41:16.335Z,13.40
2023-01-07T18:43:43.101Z,13.10
2023-01-07T18:46:10.235Z,13.00
2023-01-07T18:48:37.070Z,13.90
2023-01-07T18:51:10.050Z,13.80
2023-01-07T18:53:36.917Z,13.40
2023-01-07T18:56:03.983Z,13.60
2023-01-07T18:58:30.866Z,13.70
2023-01-07T19:01:02.791Z,14.00
2023-01-07T19:03:30.783Z,13.40
2023-01-07T19:05:59.027Z,14.00
2023-01-07T19:08:26.641Z,13.90
2023-01-07T19:10:53.293Z,14.00
2023-01-07T19:13:19.957Z,14.20
2023-01-07T19:15:46.730Z,13.80
2023-01-07T19:18:13.817Z,14.30
2023-01-07T19:20:40.493Z,13.90
2023-01-07T19:23:08.225Z,14.20
2023-01-07T19:25:34.898Z,13.80
2023-01-07T19:28:01.548Z,13.50
2023-01-07T19:30:28.417Z,14.40
2023-01-07T19:32:55.387Z,13.70
2023-01-07T19:35:22.077Z,14.00
2023-01-07T19:37:50.732Z,12.90
2023-01-07T19:40:17.657Z,13.50
2023-01-07T19:42:44.963Z,13.20
2023-01-07T19:45:11.745Z,13.50
2023-01-07T19:47:39.365Z,13.40
2023-01-07T19:50:06.565Z,14.00
2023-01-07T19:52:33.195Z,14.00
2023-01-07T19:54:59.902Z,14.20
2023-01-07T19:57:26.592Z,13.90
2023-01-07T19:59:53.271Z,14.60
2023-01-07T20:02:20.856Z,14.40
2023-01-07T20:04:47.618Z,13.60
2023-01-07T20:07:14.231Z,13.60
2023-01-07T20:09:41.208Z,13.70
2023-01-07T20:12:07.959Z,14.10
2023-01-07T20:14:34.678Z,14.10
2023-01-07T20:17:01.416Z,14.70
2023-01-07T20:19:29.799Z,14.10
2023-01-07T20:21:57.110Z,14.30
2023-01-07T20:24:23.957Z,14.50
2023-01-07T20:26:51.069Z,14.10
2023-01-07T20:29:18.581Z,13.90
2023-01-07T20:31:45.633Z,13.50
2023-01-07T20:34:13.406Z,14.00
2023-01-07T20:36:40.030Z,14.20
2023-01-07T20:39:07.327Z,13.70
2023-01-07T20:41:35.541Z,13.70
2023-01-07T20:44:03.884Z,14.60
2023-01-07T20:46:33.428Z,14.70
2023-01-07T20:49:01.093Z,14.20
2023-01-07T20:51:27.804Z,14.30
2023-01-07T20:53:54.465Z,13.50
2023-01-07T20:56:22.782Z,14.10
2023-01-07T20:58:50.360Z,14.40
2023-01-07T21:01:20.097Z,14.70
2023-01-07T21:03:46.970Z,13.90
2023-01-07T21:06:17.338Z,13.20
2023-01-07T21:08:45.390Z,13.30
2023-01-07T21:11:16.654Z,13.40
2023-01-07T21:13:43.440Z,13.40
2023-01-07T21:16:10.651Z,13.10
2023-01-07T21:18:37.510Z,14.10
2023-01-07T21:21:10.696Z,13.70
2023-01-07T21:23:38.062Z,13.80
2023-01-07T21:26:07.435Z,14.10
2023-01-07T21:28:34.728Z,13.70
2023-01-07T21:31:08.857Z,14.50
2023-01-07T21:33:36.620Z,14.60
2023-01-07T21:36:11.754Z,14.10
2023-01-07T21:38:38.627Z,13.80
2023-01-07T21:41:10.020Z,13.00
2023-01-07T21:43:37.416Z,13.60
2023-01-07T21:46:05.780Z,13.70
2023-01-07T21:48:37.040Z,13.50
2023-01-07T21:51:05.778Z,14.00
2023-01-07T21:53:34.263Z,14.00
2023-01-07T21:56:08.903Z,13.90
2023-01-07T21:58:36.609Z,14.00
2023-01-07T22:01:05.430Z,13.70
2023-01-07T22:03:33.088Z,14.10
2023-01-07T22:06:02.109Z,14.60
2023-01-07T22:08:30.870Z,14.20
2023-01-07T22:10:57.639Z,13.70
2023-01-07T22:13:24.333Z,14.10
2023-01-07T22:16:00.013Z,13.60
2023-01-07T22:18:26.799Z,14.10
2023-01-07T22:20:55.651Z,14.50
2023-01-07T22:23:22.670Z,14.00
2023-01-07T22:25:49.739Z,13.80
2023-01-07T22:28:18.171Z,14.40
2023-01-07T22:30:52.511Z,14.30
2023-01-07T22:33:19.338Z,14.20
2023-01-07T22:35:46.581Z,13.60
2023-01-07T22:38:15.062Z,14.10
2023-01-07T22:40:41.941Z,12.90
2023-01-07T22:43:12.424Z,13.50
2023-01-07T22:45:39.107Z,13.50
2023-01-07T22:48:11.438Z,13.80
2023-01-07T22:50:39.524Z,14.30
2023-01-07T22:53:08.644Z,13.80
2023-01-07T22:55:35.886Z,14.00
2023-01-07T22:58:03.758Z,14.00
2023-01-07T23:00:39.563Z,14.10
2023-01-07T23:03:12.313Z,13.90
2023-01-07T23:05:39.831Z,13.50
2023-01-07T23:08:07.075Z,13.70
2023-01-07T23:10:35.284Z,13.90
2023-01-07T23:13:02.176Z,14.00
2023-01-07T23:15:28.915Z,13.90
2023-01-07T23:17:55.842Z,14.30
2023-01-07T23:20:22.638Z,14.40
2023-01-07T23:22:49.302Z,14.30
2023-01-07T23:25:16.053Z,13.80
2023-01-07T23:27:42.912Z,14.00
2023-01-07T23:30:10.575Z,13.90
2023-01-07T23:32:37.268Z,13.90
2023-01-07T23:35:04.258Z,14.40
2023-01-07T23:37:31.067Z,14.70
2023-01-07T23:39:57.751Z,14.00
2023-01-07T23:42:24.593Z,13.90
2023-01-07T23:44:51.234Z,14.20
2023-01-07T23:47:17.958Z,14.70
2023-01-07T23:49:44.635Z,14.20
2023-01-07T23:52:11.350Z,13.60
2023-01-07T23:54:38.460Z,13.60
2023-01-07T23:57:06.147Z,13.30
2023-01-07T23:59:32.967Z,13.40
